createdAt,value
2022-11-29T00:06:48.149Z,27.93
2022-11-29T00:16:52.218Z,26.70
2022-11-29T00:26:53.896Z,25.73
2022-11-29T00:36:55.586Z,31.27
2022-11-29T00:46:57.236Z,28.10
2022-11-29T00:56:59.246Z,30.87
2022-11-29T01:07:00.900Z,26.50
2022-11-29T01:17:02.748Z,30.43
2022-11-29T01:27:04.444Z,28.20
2022-11-29T01:37:06.395Z,27.70
2022-11-29T01:47:10.752Z,27.77
2022-11-29T01:57:13.145Z,29.80
2022-11-29T02:07:15.237Z,32.00
2022-11-29T02:17:38.143Z,29.50
2022-11-29T02:27:45.517Z,29.43
2022-11-29T02:38:05.783Z,33.43
2022-11-29T02:48:28.634Z,31.63
2022-11-29T02:58:36.134Z,32.77
2022-11-29T03:08:46.352Z,30.43
2022-11-29T03:19:33.582Z,32.53
2022-11-29T03:29:55.035Z,29.87
2022-11-29T03:40:11.120Z,31.37
2022-11-29T03:50:22.907Z,31.50
2022-11-29T04:00:24.908Z,32.93
2022-11-29T04:10:58.245Z,28.87
2022-11-29T04:21:30.453Z,29.33
2022-11-29T04:31:50.246Z,34.17
2022-11-29T04:42:12.338Z,27.10
2022-11-29T04:52:27.703Z,26.57
2022-11-29T05:02:51.503Z,26.10
2022-11-29T05:13:03.755Z,26.43
2022-11-29T05:23:24.281Z,25.67
2022-11-29T05:33:55.863Z,27.07
2022-11-29T05:44:19.528Z,23.93
2022-11-29T05:54:36.936Z,25.27
2022-11-29T06:04:57.319Z,24.37
2022-11-29T06:15:15.257Z,24.60
2022-11-29T06:25:30.576Z,26.27
2022-11-29T06:36:07.616Z,24.97
2022-11-29T06:55:39.091Z,28.07
2022-11-29T07:05:41.111Z,28.40
2022-11-29T07:16:07.293Z,23.57
2022-11-29T07:26:11.669Z,28.30
2022-11-29T07:36:53.785Z,25.90
2022-11-29T07:46:55.506Z,28.67
2022-11-29T07:56:57.139Z,26.13
2022-11-29T08:07:01.645Z,25.03
2022-11-29T08:17:03.357Z,26.07
2022-11-29T08:27:05.177Z,27.30
2022-11-29T08:37:07.244Z,25.60
2022-11-29T08:47:29.529Z,24.67
2022-11-29T08:57:39.772Z,31.57
2022-11-29T09:07:42.528Z,26.77
2022-11-29T09:17:44.169Z,23.40
2022-11-29T09:27:45.812Z,28.87
2022-11-29T09:37:47.429Z,33.27
2022-11-29T09:48:25.225Z,25.87
2022-11-29T09:58:43.919Z,52.70
2022-11-29T10:08:51.798Z,28.30
2022-11-29T10:19:09.427Z,33.13
2022-11-29T10:29:15.055Z,29.77
2022-11-29T10:39:37.283Z,35.37
2022-11-29T10:49:40.236Z,32.50
2022-11-29T10:59:57.480Z,35.30
2022-11-29T11:09:59.789Z,32.60
2022-11-29T11:23:55.868Z,30.80
2022-11-29T11:34:23.867Z,32.97
2022-11-29T11:44:52.018Z,34.60
2022-11-29T11:54:57.147Z,32.67
2022-11-29T12:05:01.333Z,36.17
2022-11-29T12:15:07.427Z,46.70
2022-11-29T12:25:15.986Z,38.07
2022-11-29T12:35:45.239Z,31.63
2022-11-29T12:46:06.329Z,35.63
2022-11-29T12:56:27.814Z,35.57
2022-11-29T13:06:47.357Z,36.83
2022-11-29T13:17:12.393Z,33.63
2022-11-29T13:27:22.305Z,41.17
2022-11-29T13:37:31.881Z,46.90
2022-11-29T13:47:52.725Z,37.07
2022-11-29T13:58:17.481Z,32.10
2022-11-29T14:09:02.009Z,31.90
2022-11-29T14:19:08.517Z,57.67
2022-11-29T14:29:48.514Z,41.80
2022-11-29T14:39:52.715Z,34.37
2022-11-29T14:49:56.032Z,32.80
2022-11-29T14:59:59.117Z,36.37
2022-11-29T15:10:04.824Z,34.87
2022-11-29T15:20:30.648Z,35.57
2022-11-29T15:30:38.378Z,45.23
2022-11-29T15:40:44.937Z,56.47
2022-11-29T15:50:55.178Z,41.93
2022-11-29T16:00:59.369Z,39.80
2022-11-29T16:11:01.639Z,42.93
2022-11-29T16:21:05.999Z,43.90
2022-11-29T16:31:12.367Z,38.63
2022-11-29T16:41:32.350Z,39.20
2022-11-29T16:51:42.451Z,39.60
2022-11-29T17:01:44.608Z,41.27
2022-11-29T17:11:46.218Z,45.70
2022-11-29T17:21:49.033Z,40.57
2022-11-29T17:31:50.891Z,43.73
2022-11-29T17:41:52.671Z,40.70
2022-11-29T17:51:54.486Z,40.70
2022-11-29T18:01:56.192Z,41.30
2022-11-29T18:11:57.932Z,41.03
2022-11-29T18:21:59.973Z,39.20
2022-11-29T18:32:02.049Z,36.97
2022-11-29T18:42:03.861Z,39.70
2022-11-29T18:52:06.371Z,36.87
2022-11-29T19:02:09.564Z,39.23
2022-11-29T19:12:11.256Z,40.80
2022-11-29T19:22:12.905Z,37.77
2022-11-29T19:32:14.544Z,35.47
2022-11-29T19:42:16.205Z,36.07
2022-11-29T19:52:17.858Z,34.37
2022-11-29T20:02:19.578Z,34.13
2022-11-29T20:12:24.237Z,37.13
2022-11-29T20:22:25.903Z,37.30
2022-11-29T20:32:27.594Z,34.50
2022-11-29T20:42:29.414Z,34.03
2022-11-29T20:52:59.355Z,35.10
2022-11-29T21:03:00.974Z,35.97
2022-11-29T21:13:02.992Z,34.63
2022-11-29T21:23:11.674Z,37.10
2022-11-29T21:33:13.553Z,32.37
2022-11-29T21:43:15.176Z,37.07
2022-11-29T21:53:16.811Z,33.83
2022-11-29T22:03:18.551Z,35.37
2022-11-29T22:13:20.164Z,37.07
2022-11-29T22:23:21.799Z,36.07
2022-11-29T22:33:23.856Z,37.63
2022-11-29T22:43:25.477Z,40.10
2022-11-29T22:53:27.572Z,29.87
2022-11-29T23:03:29.672Z,34.00
2022-11-29T23:13:36.367Z,30.97
2022-11-29T23:23:38.548Z,31.60
2022-11-29T23:33:40.236Z,31.17
2022-11-29T23:43:42.377Z,32.17
2022-11-29T23:53:44.588Z,31.80
